createdAt,value
2023-04-19T00:02:23.820Z,97229.38
2023-04-19T00:04:51.603Z,97226.91
2023-04-19T00:07:21.288Z,97223.66
2023-04-19T00:09:48.801Z,97223.00
2023-04-19T00:12:16.313Z,97222.34
2023-04-19T00:14:43.873Z,97225.75
2023-04-19T00:17:12.236Z,97222.34
2023-04-19T00:19:39.733Z,97222.34
2023-04-19T00:22:07.209Z,97216.31
2023-04-19T00:24:36.256Z,97222.19
2023-04-19T00:27:03.760Z,97218.44
2023-04-19T00:29:31.713Z,97209.69
2023-04-19T00:31:59.203Z,97215.69
2023-04-19T00:34:26.818Z,97212.28
2023-04-19T00:36:54.328Z,97210.63
2023-04-19T00:39:21.848Z,97208.38
2023-04-19T00:41:50.716Z,97199.91
2023-04-19T00:44:18.261Z,97204.94
2023-04-19T00:46:46.514Z,97204.78
2023-04-19T00:49:14.054Z,97203.81
2023-04-19T00:51:41.735Z,97205.59
2023-04-19T00:54:09.653Z,97204.47
2023-04-19T00:56:37.263Z,97208.84
2023-04-19T00:59:06.162Z,97203.63
2023-04-19T01:01:34.779Z,97202.69
2023-04-19T01:04:03.496Z,97198.44
2023-04-19T01:06:31.803Z,97197.63
2023-04-19T01:08:59.637Z,97196.00
2023-04-19T01:11:27.643Z,97202.81
2023-04-19T01:13:56.556Z,97196.81
2023-04-19T01:16:27.019Z,97191.75
2023-04-19T01:18:55.035Z,97191.09
2023-04-19T01:21:23.394Z,97181.81
2023-04-19T01:23:52.284Z,97181.97
2023-04-19T01:26:20.256Z,97182.63
2023-04-19T01:28:47.793Z,97181.00
2023-04-19T01:31:15.424Z,97181.97
2023-04-19T01:33:43.027Z,97175.31
2023-04-19T01:36:10.837Z,97180.66
2023-04-19T01:38:38.532Z,97173.97
2023-04-19T01:41:07.971Z,97174.78
2023-04-19T01:43:35.557Z,97169.59
2023-04-19T01:46:03.406Z,97164.38
2023-04-19T01:48:30.958Z,97169.44
2023-04-19T01:50:58.458Z,97163.28
2023-04-19T01:53:26.049Z,97168.47
2023-04-19T01:55:53.607Z,97166.84
2023-04-19T01:58:22.464Z,97166.69
2023-04-19T02:00:50.137Z,97159.03
2023-04-19T02:03:17.801Z,97161.28
2023-04-19T02:05:45.486Z,97158.19
2023-04-19T02:08:12.986Z,97152.50
2023-04-19T02:10:40.512Z,97147.44
2023-04-19T02:13:08.018Z,97149.53
2023-04-19T02:15:37.999Z,97146.47
2023-04-19T02:18:06.739Z,97141.25
2023-04-19T02:20:34.565Z,97137.16
2023-04-19T02:23:02.079Z,97139.94
2023-04-19T02:25:29.562Z,97136.69
2023-04-19T02:27:57.054Z,97125.91
2023-04-19T02:30:24.626Z,97138.13
2023-04-19T02:32:54.970Z,97132.75
2023-04-19T02:35:22.981Z,97133.28
2023-04-19T02:37:50.531Z,97129.34
2023-04-19T02:40:18.205Z,97128.25
2023-04-19T02:42:45.801Z,97131.50
2023-04-19T02:45:13.327Z,97132.47
2023-04-19T02:47:40.896Z,97131.50
2023-04-19T02:50:11.858Z,97129.53
2023-04-19T02:52:39.616Z,97127.28
2023-04-19T02:55:07.876Z,97129.91
2023-04-19T02:57:35.400Z,97125.34
2023-04-19T03:00:05.165Z,97129.72
2023-04-19T03:02:32.768Z,97130.72
2023-04-19T03:05:00.377Z,97122.91
2023-04-19T03:07:29.240Z,97119.66
2023-04-19T03:09:56.856Z,97115.91
2023-04-19T03:12:24.494Z,97121.44
2023-04-19T03:14:51.974Z,97116.41
2023-04-19T03:17:19.565Z,97120.16
2023-04-19T03:19:47.078Z,97111.06
2023-04-19T03:22:14.603Z,97115.59
2023-04-19T03:24:43.630Z,97119.34
2023-04-19T03:27:11.165Z,97113.34
2023-04-19T03:29:38.672Z,97111.03
2023-04-19T03:32:06.365Z,97110.06
2023-04-19T03:34:33.933Z,97114.94
2023-04-19T03:37:01.479Z,97109.06
2023-04-19T03:39:29.198Z,97108.75
2023-04-19T03:41:58.117Z,97101.44
2023-04-19T03:44:25.646Z,97108.44
2023-04-19T03:46:53.303Z,97098.97
2023-04-19T03:49:20.900Z,97100.63
2023-04-19T03:51:48.434Z,97099.28
2023-04-19T03:54:16.629Z,97102.22
2023-04-19T03:56:44.340Z,97094.56
2023-04-19T03:59:13.276Z,97097.34
2023-04-19T04:01:42.320Z,97095.72
2023-04-19T04:04:10.326Z,97098.34
2023-04-19T04:06:38.023Z,97095.09
2023-04-19T04:09:05.545Z,97097.50
2023-04-19T04:11:33.103Z,97102.56
2023-04-19T04:14:00.614Z,97099.78
2023-04-19T04:16:29.552Z,97097.66
2023-04-19T04:18:57.179Z,97101.69
2023-04-19T04:21:26.323Z,97106.25
2023-04-19T04:23:53.926Z,97102.50
2023-04-19T04:26:21.854Z,97102.34
2023-04-19T04:28:49.387Z,97105.09
2023-04-19T04:31:18.259Z,97105.44
2023-04-19T04:33:47.269Z,97104.13
2023-04-19T04:36:15.323Z,97109.66
2023-04-19T04:38:43.929Z,97108.19
2023-04-19T04:41:12.871Z,97112.91
2023-04-19T04:43:40.393Z,97106.25
2023-04-19T04:46:07.950Z,97111.63
2023-04-19T04:48:35.601Z,97119.13
2023-04-19T04:51:04.644Z,97113.28
2023-04-19T04:53:32.242Z,97115.25
2023-04-19T04:55:59.819Z,97113.97
2023-04-19T04:58:27.389Z,97118.53
2023-04-19T05:00:55.553Z,97115.75
2023-04-19T05:03:23.172Z,97116.56
2023-04-19T05:05:51.042Z,97116.25
2023-04-19T05:08:19.886Z,97104.22
2023-04-19T05:10:47.453Z,97110.06
2023-04-19T05:13:14.978Z,97113.50
2023-04-19T05:15:42.506Z,97107.78
2023-04-19T05:18:10.074Z,97106.47
2023-04-19T05:20:37.595Z,97105.81
2023-04-19T05:23:05.135Z,97103.41
2023-04-19T05:25:34.309Z,97110.88
2023-04-19T05:28:03.441Z,97108.44
2023-04-19T05:30:30.981Z,97108.75
2023-04-19T05:32:59.032Z,97100.78
2023-04-19T05:35:26.870Z,97106.34
2023-04-19T05:37:54.350Z,97103.53
2023-04-19T05:40:23.691Z,97106.81
2023-04-19T05:42:52.982Z,97104.69
2023-04-19T05:45:22.856Z,97103.06
2023-04-19T05:47:50.432Z,97091.84
2023-04-19T05:50:20.557Z,97104.22
2023-04-19T05:52:48.188Z,97095.56
2023-04-19T05:55:15.680Z,97100.63
2023-04-19T05:57:43.177Z,97092.81
2023-04-19T06:00:13.355Z,97101.28
2023-04-19T06:02:41.105Z,97096.38
2023-04-19T06:05:10.706Z,97090.53
2023-04-19T06:07:43.155Z,97097.69
2023-04-19T06:10:14.764Z,97096.41
2023-04-19T06:12:42.250Z,97097.72
2023-04-19T06:15:12.436Z,97098.03
2023-04-19T06:17:40.109Z,97094.91
2023-04-19T06:20:10.171Z,97092.16
2023-04-19T06:22:45.915Z,97101.28
2023-04-19T06:25:13.460Z,97102.88
2023-04-19T06:27:41.065Z,97100.94
2023-04-19T06:30:09.357Z,97095.41
2023-04-19T06:32:38.413Z,97090.19
2023-04-19T06:35:07.928Z,97094.06
2023-04-19T06:37:35.617Z,97090.50
2023-04-19T06:40:05.054Z,97084.00
2023-04-19T06:42:32.624Z,97079.41
2023-04-19T06:45:00.179Z,97085.44
2023-04-19T06:47:27.828Z,97085.88
2023-04-19T06:49:57.696Z,97095.66
2023-04-19T06:52:25.214Z,97089.66
2023-04-19T06:54:53.069Z,97096.97
2023-04-19T06:57:20.834Z,97094.00
2023-04-19T06:59:48.458Z,97095.00
2023-04-19T07:02:16.140Z,97092.91
2023-04-19T07:04:43.910Z,97087.69
2023-04-19T07:07:13.397Z,97096.03
2023-04-19T07:09:40.980Z,97083.34
2023-04-19T07:12:08.742Z,97090.50
2023-04-19T07:14:36.468Z,97086.25
2023-04-19T07:17:05.480Z,97090.50
2023-04-19T07:19:33.115Z,97087.72
2023-04-19T07:22:00.949Z,97085.28
2023-04-19T07:24:30.421Z,97087.25
2023-04-19T07:26:58.396Z,97076.81
2023-04-19T07:29:25.965Z,97069.66
2023-04-19T07:31:55.310Z,97073.22
2023-04-19T07:34:22.993Z,97066.19
2023-04-19T07:36:50.515Z,97061.13
2023-04-19T07:39:18.029Z,97061.91
2023-04-19T07:41:47.203Z,97059.72
2023-04-19T07:44:15.132Z,97059.47
2023-04-19T07:46:44.336Z,97053.53
2023-04-19T07:49:11.923Z,97047.34
2023-04-19T07:51:39.450Z,97049.66
2023-04-19T07:54:07.286Z,97039.88
2023-04-19T07:56:34.896Z,97034.31
2023-04-19T07:59:08.866Z,97044.25
2023-04-19T08:01:37.775Z,97048.47
2023-04-19T08:04:05.850Z,97039.13
2023-04-19T08:06:34.489Z,97034.94
2023-04-19T08:09:02.089Z,97040.09
2023-04-19T08:11:29.643Z,97046.19
2023-04-19T08:17:06.563Z,97044.78
2023-04-19T08:19:17.269Z,97040.09
2023-04-19T08:21:44.847Z,97031.28
2023-04-19T08:24:12.495Z,97028.06
2023-04-19T08:26:40.250Z,97031.22
2023-04-19T08:29:08.150Z,97028.78
2023-04-19T08:31:37.351Z,97031.94
2023-04-19T08:34:04.950Z,97030.03
2023-04-19T08:36:41.160Z,97023.53
2023-04-19T08:39:20.735Z,97032.22
2023-04-19T08:42:07.489Z,97026.97
2023-04-19T08:44:54.309Z,97021.56
2023-04-19T08:47:34.012Z,97023.03
2023-04-19T08:52:39.121Z,97015.91
2023-04-19T08:55:13.545Z,97008.72
2023-04-19T08:57:41.252Z,97008.16
2023-04-19T09:00:11.352Z,97009.13
2023-04-19T09:02:50.915Z,97004.53
2023-04-19T09:05:20.263Z,96996.38
2023-04-19T09:07:48.550Z,96998.09
2023-04-19T09:10:17.823Z,97002.69
2023-04-19T09:13:02.101Z,97004.88
2023-04-19T09:15:38.209Z,97004.97
2023-04-19T09:18:09.781Z,97003.97
2023-04-19T09:20:41.809Z,97007.88
2023-04-19T09:23:12.746Z,97008.00
2023-04-19T09:25:59.277Z,97003.75
2023-04-19T09:28:29.489Z,97005.75
2023-04-19T09:31:05.574Z,97005.34
2023-04-19T09:33:39.571Z,96996.97
2023-04-19T09:36:07.734Z,96998.50
2023-04-19T09:38:48.966Z,96997.13
2023-04-19T09:41:17.281Z,96990.19
2023-04-19T09:44:03.169Z,96993.78
2023-04-19T09:46:34.454Z,96989.66
2023-04-19T09:49:28.004Z,96982.72
2023-04-19T09:52:08.632Z,96976.31
2023-04-19T09:54:36.238Z,96981.47
2023-04-19T09:57:03.887Z,96979.97
2023-04-19T09:59:31.576Z,96976.50
2023-04-19T10:02:02.094Z,96968.03
2023-04-19T10:04:44.152Z,96964.78
2023-04-19T10:07:29.953Z,96967.69
2023-04-19T10:10:11.597Z,96964.06
2023-04-19T10:13:07.460Z,96957.16
2023-04-19T10:18:09.784Z,96956.59
2023-04-19T10:20:47.645Z,96951.91
2023-04-19T10:23:15.260Z,96954.25
2023-04-19T10:25:47.300Z,96951.97
2023-04-19T10:28:16.312Z,96951.56
2023-04-19T10:30:54.702Z,96951.09
2023-04-19T10:33:29.474Z,96950.09
2023-04-19T10:35:59.688Z,96949.09
2023-04-19T10:38:41.467Z,96948.47
2023-04-19T10:41:16.866Z,96947.19
2023-04-19T10:43:46.928Z,96944.50
2023-04-19T10:46:16.794Z,96936.19
2023-04-19T10:49:02.716Z,96939.00
2023-04-19T10:51:35.697Z,96937.91
2023-04-19T10:54:04.459Z,96938.59
2023-04-19T10:57:11.919Z,96938.66
2023-04-19T10:59:42.890Z,96943.50
2023-04-19T11:02:29.435Z,96935.41
2023-04-19T11:05:04.190Z,96929.72
2023-04-19T11:07:40.871Z,96933.84
2023-04-19T11:10:10.513Z,96932.38
2023-04-19T11:12:38.254Z,96931.94
2023-04-19T11:15:09.445Z,96931.81
2023-04-19T11:17:38.703Z,96932.50
2023-04-19T11:20:08.654Z,96931.38
2023-04-19T11:22:37.673Z,96920.66
2023-04-19T11:25:14.334Z,96919.88
2023-04-19T11:27:43.037Z,96910.59
2023-04-19T11:30:12.624Z,96916.13
2023-04-19T11:32:46.047Z,96909.66
2023-04-19T11:35:13.956Z,96912.44
2023-04-19T11:37:41.576Z,96925.81
2023-04-19T11:40:09.922Z,96919.31
2023-04-19T11:42:38.952Z,96918.19
2023-04-19T11:45:15.812Z,96916.44
2023-04-19T11:47:50.214Z,96913.84
2023-04-19T11:50:32.265Z,96909.16
2023-04-19T11:52:59.992Z,96912.28
2023-04-19T11:55:27.662Z,96905.78
2023-04-19T11:57:56.572Z,96904.50
2023-04-19T12:00:29.298Z,96900.63
2023-04-19T12:02:56.862Z,96899.97
2023-04-19T12:05:24.830Z,96903.59
2023-04-19T12:08:02.860Z,96901.19
2023-04-19T12:10:30.780Z,96905.28
2023-04-19T12:13:00.270Z,96903.16
2023-04-19T12:15:42.859Z,96910.34
2023-04-19T12:18:10.861Z,96903.34
2023-04-19T12:20:39.994Z,96905.13
2023-04-19T12:23:11.109Z,96896.03
2023-04-19T12:25:38.839Z,96898.31
2023-04-19T12:28:07.928Z,96897.16
2023-04-19T12:30:36.977Z,96895.03
2023-04-19T12:33:04.962Z,96893.25
2023-04-19T12:35:32.549Z,96896.00
2023-04-19T12:38:00.984Z,96903.66
2023-04-19T12:40:28.586Z,96900.06
2023-04-19T12:42:56.101Z,96901.53
2023-04-19T12:45:24.964Z,96896.00
2023-04-19T12:47:52.676Z,96891.47
2023-04-19T12:50:20.297Z,96887.88
2023-04-19T12:52:47.826Z,96887.72
2023-04-19T12:55:15.554Z,96890.94
2023-04-19T12:57:43.671Z,96880.72
2023-04-19T13:00:12.504Z,96888.69
2023-04-19T13:02:41.462Z,96889.03
2023-04-19T13:05:09.887Z,96892.63
2023-04-19T13:07:37.453Z,96887.59
2023-04-19T13:10:06.077Z,96878.63
2023-04-19T13:12:33.618Z,96877.78
2023-04-19T13:15:03.602Z,96871.47
2023-04-19T13:17:31.806Z,96877.94
2023-04-19T13:20:00.680Z,96873.38
2023-04-19T13:22:28.244Z,96863.13
2023-04-19T13:24:55.780Z,96871.59
2023-04-19T13:27:23.369Z,96864.44
2023-04-19T13:29:50.927Z,96858.06
2023-04-19T13:32:18.462Z,96862.91
2023-04-19T13:34:46.031Z,96851.19
2023-04-19T13:37:15.024Z,96848.88
2023-04-19T13:39:42.549Z,96842.69
2023-04-19T13:42:10.404Z,96842.69
2023-04-19T13:44:37.975Z,96840.56
2023-04-19T13:47:05.682Z,96838.91
2023-04-19T13:49:33.341Z,96827.03
2023-04-19T13:52:00.873Z,96821.34
2023-04-19T13:54:29.795Z,96819.53
2023-04-19T13:56:57.846Z,96826.03
2023-04-19T13:59:26.095Z,96824.72
2023-04-19T14:01:55.840Z,96835.09
2023-04-19T14:04:24.248Z,96825.22
2023-04-19T14:06:52.340Z,96820.13
2023-04-19T14:09:19.929Z,96823.50
2023-04-19T14:11:49.370Z,96824.47
2023-04-19T14:14:17.197Z,96813.97
2023-04-19T14:16:45.160Z,96813.72
2023-04-19T14:19:12.733Z,96814.81
2023-04-19T14:21:40.337Z,96809.44
2023-04-19T14:24:08.255Z,96806.53
2023-04-19T14:26:35.930Z,96807.88
2023-04-19T14:29:04.794Z,96801.84
2023-04-19T14:31:32.436Z,96800.59
2023-04-19T14:34:00.556Z,96798.94
2023-04-19T14:36:28.088Z,96789.97
2023-04-19T14:38:55.615Z,96788.44
2023-04-19T14:41:23.120Z,96791.97
2023-04-19T14:43:50.708Z,96782.81
2023-04-19T14:46:19.634Z,96781.47
2023-04-19T14:48:47.224Z,96789.38
2023-04-19T14:51:14.768Z,96776.44
2023-04-19T14:53:42.343Z,96774.84
2023-04-19T14:56:09.947Z,96777.63
2023-04-19T14:58:37.517Z,96772.50
2023-04-19T15:01:12.488Z,96768.25
2023-04-19T15:03:41.797Z,96769.88
2023-04-19T15:06:09.559Z,96765.56
2023-04-19T15:08:37.160Z,96757.63
2023-04-19T15:11:04.804Z,96758.50
2023-04-19T15:13:32.398Z,96764.63
2023-04-19T15:16:02.508Z,96757.88
2023-04-19T15:18:30.832Z,96757.94
2023-04-19T15:20:59.821Z,96753.78
2023-04-19T15:23:27.363Z,96749.63
2023-04-19T15:25:54.923Z,96744.84
2023-04-19T15:28:23.880Z,96750.47
2023-04-19T15:30:58.605Z,96746.50
2023-04-19T15:33:26.419Z,96743.34
2023-04-19T15:35:54.913Z,96743.81
2023-04-19T15:38:25.094Z,96739.84
2023-04-19T15:40:52.848Z,96743.06
2023-04-19T15:43:20.369Z,96739.44
2023-04-19T15:45:47.877Z,96731.44
2023-04-19T15:48:15.622Z,96737.91
2023-04-19T15:50:44.309Z,96735.13
2023-04-19T15:53:11.898Z,96736.72
2023-04-19T15:55:41.372Z,96732.13
2023-04-19T15:58:08.990Z,96734.09
2023-04-19T16:00:36.668Z,96741.94
2023-04-19T16:03:05.099Z,96735.28
2023-04-19T16:05:32.731Z,96734.66
2023-04-19T16:08:04.516Z,96741.09
2023-04-19T16:10:32.451Z,96736.03
2023-04-19T16:13:01.512Z,96740.19
2023-04-19T16:15:29.487Z,96736.78
2023-04-19T16:17:57.088Z,96738.59
2023-04-19T16:20:25.048Z,96736.94
2023-04-19T16:22:52.687Z,96744.34
2023-04-19T16:25:20.233Z,96734.06
2023-04-19T16:27:48.050Z,96738.50
2023-04-19T16:30:17.616Z,96751.09
2023-04-19T16:32:45.172Z,96748.88
2023-04-19T16:35:12.853Z,96747.19
2023-04-19T16:37:40.364Z,96744.69
2023-04-19T16:40:09.435Z,96746.59
2023-04-19T16:42:37.931Z,96744.72
2023-04-19T16:45:06.818Z,96744.28
2023-04-19T16:47:36.291Z,96757.25
2023-04-19T16:50:06.154Z,96754.72
2023-04-19T16:52:35.360Z,96750.25
2023-04-19T16:55:04.480Z,96749.97
2023-04-19T16:57:32.595Z,96754.13
2023-04-19T17:00:00.290Z,96751.25
2023-04-19T17:02:28.108Z,96753.97
2023-04-19T17:04:57.465Z,96756.50
2023-04-19T17:07:25.108Z,96752.94
2023-04-19T17:09:52.649Z,96748.66
2023-04-19T17:12:20.319Z,96750.00
2023-04-19T17:14:47.854Z,96746.91
2023-04-19T17:17:15.360Z,96753.94
2023-04-19T17:19:42.932Z,96757.09
2023-04-19T17:22:11.961Z,96754.72
2023-04-19T17:24:39.574Z,96754.59
2023-04-19T17:27:07.199Z,96749.94
2023-04-19T17:29:34.765Z,96756.47
2023-04-19T17:32:02.319Z,96755.41
2023-04-19T17:34:29.861Z,96760.47
2023-04-19T17:36:57.816Z,96761.81
2023-04-19T17:39:27.904Z,96760.69
2023-04-19T17:41:55.832Z,96759.44
2023-04-19T17:44:23.538Z,96762.56
2023-04-19T17:46:51.153Z,96753.66
2023-04-19T17:49:20.133Z,96762.81
2023-04-19T17:51:48.187Z,96756.31
2023-04-19T19:12:34.651Z,96795.03
2023-04-19T19:15:02.328Z,96797.78
2023-04-19T19:17:29.882Z,96801.69
2023-04-19T19:19:57.490Z,96803.66
2023-04-19T19:22:28.790Z,96803.97
2023-04-19T19:24:57.043Z,96795.84
2023-04-19T19:27:24.820Z,96803.94
2023-04-19T19:29:53.737Z,96809.47
2023-04-19T19:32:21.320Z,96809.81
2023-04-19T19:37:20.129Z,96800.84
2023-04-19T19:39:47.629Z,96799.25
2023-04-19T19:42:16.748Z,96805.41
2023-04-19T19:44:44.624Z,96808.16
2023-04-19T19:47:16.174Z,96801.63
2023-04-19T19:50:08.759Z,96803.63
2023-04-19T19:52:32.819Z,96810.41
2023-04-19T19:55:00.939Z,96810.41
2023-04-19T20:00:19.600Z,96804.06
2023-04-19T20:05:19.365Z,96816.88
2023-04-19T20:08:01.238Z,96815.56
2023-04-19T20:10:29.716Z,96812.47
2023-04-19T20:12:57.257Z,96807.59
2023-04-19T20:15:25.093Z,96814.88
2023-04-19T20:17:54.047Z,96810.00
2023-04-19T20:20:21.824Z,96809.34
2023-04-19T20:22:49.360Z,96811.31
2023-04-19T20:25:16.964Z,96807.38
2023-04-19T20:27:44.524Z,96812.88
2023-04-19T20:30:12.747Z,96822.59
2023-04-19T20:32:42.514Z,96809.94
2023-04-19T20:35:12.793Z,96816.56
2023-04-19T20:37:41.091Z,96811.84
2023-04-19T20:40:12.146Z,96807.31
2023-04-19T20:42:40.271Z,96809.75
2023-04-19T20:45:10.552Z,96807.63
2023-04-19T20:47:38.778Z,96807.25
2023-04-19T20:50:06.944Z,96801.75
2023-04-19T20:52:36.184Z,96800.41
2023-04-19T20:55:03.807Z,96799.09
2023-04-19T20:57:31.386Z,96792.28
2023-04-19T20:59:58.896Z,96792.59
2023-04-19T21:02:26.682Z,96802.31
2023-04-19T21:04:54.353Z,96798.41
2023-04-19T21:07:21.845Z,96797.09
2023-04-19T21:09:50.666Z,96792.19
2023-04-19T21:12:18.350Z,96784.06
2023-04-19T21:14:49.281Z,96788.59
2023-04-19T21:17:17.158Z,96787.94
2023-04-19T21:19:44.686Z,96787.94
2023-04-19T21:22:12.275Z,96775.13
2023-04-19T21:24:39.801Z,96775.28
2023-04-19T21:27:08.693Z,96776.91
2023-04-19T21:29:36.187Z,96772.53
2023-04-19T21:32:03.778Z,96767.81
2023-04-19T21:34:31.467Z,96764.88
2023-04-19T21:36:59.004Z,96767.59
2023-04-19T21:39:26.532Z,96760.81
2023-04-19T21:41:54.083Z,96762.13
2023-04-19T21:44:22.912Z,96769.44
2023-04-19T21:46:50.620Z,96766.19
2023-04-19T21:49:18.319Z,96763.59
2023-04-19T21:51:45.949Z,96759.06
2023-04-19T21:54:20.537Z,96758.09
2023-04-19T21:56:58.750Z,96753.56
2023-04-19T21:59:27.619Z,96751.63
2023-04-19T22:01:55.172Z,96747.72
2023-04-19T22:04:22.938Z,96751.59
2023-04-19T22:06:50.569Z,96753.22
2023-04-19T22:09:18.220Z,96749.50
2023-04-19T22:11:46.756Z,96746.44
2023-04-19T22:14:14.291Z,96750.38
2023-04-19T22:16:43.654Z,96745.31
2023-04-19T22:19:11.714Z,96746.44
2023-04-19T22:21:39.279Z,96738.00
2023-04-19T22:24:07.768Z,96745.13
2023-04-19T22:26:36.122Z,96736.66
2023-04-19T22:29:03.612Z,96737.94
2023-04-19T22:31:31.536Z,96731.72
2023-04-19T22:34:00.389Z,96732.97
2023-04-19T22:36:28.323Z,96723.66
2023-04-19T22:38:55.937Z,96719.53
2023-04-19T22:41:23.460Z,96719.22
2023-04-19T22:43:50.946Z,96721.88
2023-04-19T22:46:18.464Z,96719.94
2023-04-19T22:48:48.186Z,96714.16
2023-04-19T22:51:18.186Z,96709.97
2023-04-19T22:53:45.873Z,96706.44
2023-04-19T22:56:13.404Z,96709.97
2023-04-19T22:58:40.973Z,96707.09
2023-04-19T23:01:08.469Z,96703.38
2023-04-19T23:03:36.177Z,96695.75
2023-04-19T23:06:04.171Z,96690.56
2023-04-19T23:08:33.498Z,96690.91
2023-04-19T23:11:01.102Z,96696.06
2023-04-19T23:13:28.623Z,96689.78
2023-04-19T23:15:56.219Z,96686.00
2023-04-19T23:18:23.737Z,96678.75
2023-04-19T23:20:51.361Z,96681.41
2023-04-19T23:23:20.051Z,96675.97
2023-04-19T23:25:48.914Z,96683.59
2023-04-19T23:28:16.797Z,96683.81
2023-04-19T23:30:44.303Z,96677.50
2023-04-19T23:33:11.830Z,96667.25
2023-04-19T23:35:39.336Z,96667.91
2023-04-19T23:38:06.900Z,96673.97
2023-04-19T23:40:34.405Z,96669.91
2023-04-19T23:43:03.573Z,96670.72
2023-04-19T23:45:31.328Z,96661.09
2023-04-19T23:47:58.893Z,96657.94
2023-04-19T23:50:26.629Z,96657.28
2023-04-19T23:52:54.190Z,96652.56
2023-04-19T23:55:22.516Z,96653.97
2023-04-19T23:57:50.092Z,96647.75
